createdAt,value
2023-02-02T00:01:32.540Z,97022.40
2023-02-02T00:04:00.636Z,97021.80
2023-02-02T00:06:29.697Z,97017.60
2023-02-02T00:08:59.327Z,97019.20
2023-02-02T00:11:27.354Z,97018.80
2023-02-02T00:13:55.562Z,97012.40
2023-02-02T00:16:26.486Z,97011.40
2023-02-02T00:19:02.588Z,97012.20
2023-02-02T00:21:30.616Z,97011.00
2023-02-02T00:23:58.550Z,97014.20
2023-02-02T00:26:26.679Z,97004.60
2023-02-02T00:28:55.346Z,97006.80
2023-02-02T00:31:23.627Z,97007.20
2023-02-02T00:33:51.678Z,97006.40
2023-02-02T00:36:20.373Z,97004.40
2023-02-02T00:38:49.072Z,97005.60
2023-02-02T00:41:17.856Z,97000.60
2023-02-02T00:44:08.698Z,97002.40
2023-02-02T00:46:41.812Z,96992.40
2023-02-02T00:49:10.327Z,96993.60
2023-02-02T00:51:38.504Z,96994.00
2023-02-02T00:54:06.567Z,96992.00
2023-02-02T00:56:34.704Z,96993.80
2023-02-02T00:59:02.717Z,96995.20
2023-02-02T01:01:30.893Z,96989.40
2023-02-02T01:03:59.258Z,96990.60
2023-02-02T01:06:27.279Z,96987.40
2023-02-02T01:08:55.407Z,96987.00
2023-02-02T01:11:23.783Z,96980.60
2023-02-02T01:13:51.961Z,96973.00
2023-02-02T01:16:22.635Z,96977.20
2023-02-02T01:18:51.168Z,96967.20
2023-02-02T01:21:19.381Z,96967.80
2023-02-02T01:23:47.718Z,96964.40
2023-02-02T01:26:15.793Z,96966.80
2023-02-02T01:28:43.860Z,96960.20
2023-02-02T01:31:13.879Z,96954.00
2023-02-02T01:33:43.852Z,96940.80
2023-02-02T01:36:14.380Z,96945.00
2023-02-02T01:38:42.702Z,96943.40
2023-02-02T01:41:13.574Z,96940.20
2023-02-02T01:43:41.713Z,96945.80
2023-02-02T01:46:28.007Z,96945.00
2023-02-02T01:48:57.613Z,96947.00
2023-02-02T01:51:30.036Z,96949.80
2023-02-02T01:53:58.164Z,96948.40
2023-02-02T01:56:29.539Z,96941.40
2023-02-02T01:58:57.783Z,96951.00
2023-02-02T02:01:26.699Z,96947.00
2023-02-02T02:03:54.948Z,96944.00
2023-02-02T02:06:26.091Z,96950.80
2023-02-02T02:09:03.580Z,96944.20
2023-02-02T02:11:33.083Z,96944.00
2023-02-02T02:14:22.044Z,96940.40
2023-02-02T02:17:28.192Z,96932.00
2023-02-02T02:20:53.501Z,96933.40
2023-02-02T02:24:06.447Z,96935.60
2023-02-02T02:26:34.443Z,96945.00
2023-02-02T02:29:41.095Z,96948.60
2023-02-02T02:32:31.887Z,96948.20
2023-02-02T02:35:19.273Z,96948.00
2023-02-02T02:37:58.056Z,96941.00
2023-02-02T02:40:56.956Z,96941.20
2023-02-02T02:43:27.916Z,96944.40
2023-02-02T02:45:56.462Z,96938.60
2023-02-02T02:48:26.031Z,96935.40
2023-02-02T02:50:54.129Z,96933.40
2023-02-02T02:53:22.281Z,96930.60
2023-02-02T02:56:06.778Z,96926.20
2023-02-02T02:59:05.180Z,96919.60
2023-02-02T03:01:40.609Z,96911.20
2023-02-02T03:04:12.045Z,96905.40
2023-02-02T03:06:50.318Z,96907.40
2023-02-02T03:09:32.811Z,96903.80
2023-02-02T03:12:01.026Z,96905.40
2023-02-02T03:14:29.007Z,96902.40
2023-02-02T03:16:57.070Z,96893.40
2023-02-02T03:19:25.139Z,96895.40
2023-02-02T03:21:53.315Z,96895.60
2023-02-02T03:24:21.234Z,96890.40
2023-02-02T03:26:49.266Z,96885.60
2023-02-02T03:29:17.635Z,96886.80
2023-02-02T03:31:45.864Z,96883.40
2023-02-02T03:34:14.082Z,96879.60
2023-02-02T03:36:42.033Z,96877.80
2023-02-02T03:39:10.033Z,96883.20
2023-02-02T03:41:38.169Z,96882.60
2023-02-02T03:44:06.362Z,96882.00
2023-02-02T03:46:35.441Z,96883.80
2023-02-02T03:49:03.579Z,96876.80
2023-02-02T03:51:31.499Z,96870.40
2023-02-02T03:53:59.462Z,96872.20
2023-02-02T03:56:27.363Z,96875.40
2023-02-02T03:58:55.401Z,96878.60
2023-02-02T04:01:29.536Z,96879.80
2023-02-02T04:03:57.899Z,96877.60
2023-02-02T04:06:26.006Z,96881.60
2023-02-02T04:08:53.911Z,96877.00
2023-02-02T04:11:22.105Z,96874.00
2023-02-02T04:13:50.080Z,96876.40
2023-02-02T04:16:18.080Z,96882.20
2023-02-02T04:18:46.217Z,96881.60
2023-02-02T04:21:14.135Z,96875.00
2023-02-02T04:23:42.022Z,96873.80
2023-02-02T04:26:10.025Z,96872.80
2023-02-02T04:28:38.007Z,96860.00
2023-02-02T04:31:06.153Z,96852.80
2023-02-02T04:33:34.537Z,96847.40
2023-02-02T04:36:02.711Z,96847.00
2023-02-02T04:38:30.784Z,96843.60
2023-02-02T04:40:59.058Z,96846.40
2023-02-02T04:43:29.535Z,96845.80
2023-02-02T04:45:57.645Z,96847.60
2023-02-02T04:48:25.831Z,96847.40
2023-02-02T04:51:00.716Z,96845.60
2023-02-02T04:53:29.223Z,96848.40
2023-02-02T04:55:57.313Z,96856.60
2023-02-02T04:58:25.595Z,96858.40
2023-02-02T05:00:53.753Z,96855.20
2023-02-02T05:03:21.946Z,96867.00
2023-02-02T05:05:50.010Z,96865.20
2023-02-02T05:08:17.914Z,96870.80
2023-02-02T05:10:45.955Z,96869.00
2023-02-02T05:13:14.016Z,96871.80
2023-02-02T05:15:41.993Z,96872.00
2023-02-02T05:18:09.955Z,96864.60
2023-02-02T05:20:37.928Z,96871.00
2023-02-02T05:23:06.067Z,96848.40
2023-02-02T05:25:34.044Z,96845.00
2023-02-02T05:28:02.127Z,96845.20
2023-02-02T05:30:31.694Z,96833.80
2023-02-02T05:33:03.528Z,96821.60
2023-02-02T05:35:31.868Z,96827.60
2023-02-02T05:38:00.261Z,96843.00
2023-02-02T05:40:44.577Z,96843.80
2023-02-02T05:43:15.649Z,96844.00
2023-02-02T05:45:45.008Z,96844.20
2023-02-02T05:48:15.153Z,96845.40
2023-02-02T05:50:44.266Z,96851.80
2023-02-02T05:53:20.437Z,96844.00
2023-02-02T05:55:49.636Z,96838.00
2023-02-02T05:58:18.495Z,96834.20
2023-02-02T06:00:46.814Z,96841.20
2023-02-02T06:03:14.871Z,96832.00
2023-02-02T06:05:43.435Z,96837.60
2023-02-02T06:08:11.423Z,96844.00
2023-02-02T06:10:42.367Z,96847.40
2023-02-02T06:13:10.431Z,96855.20
2023-02-02T06:15:38.479Z,96852.20
2023-02-02T06:18:07.705Z,96848.20
2023-02-02T06:20:36.184Z,96838.60
2023-02-02T06:23:05.076Z,96838.40
2023-02-02T06:25:34.587Z,96833.20
2023-02-02T06:28:02.554Z,96837.40
2023-02-02T06:30:30.517Z,96838.20
2023-02-02T06:32:59.531Z,96837.00
2023-02-02T06:35:27.906Z,96836.00
2023-02-02T06:37:56.049Z,96845.60
2023-02-02T06:40:24.041Z,96849.60
2023-02-02T06:42:59.205Z,96851.00
2023-02-02T06:45:28.043Z,96844.80
2023-02-02T06:47:58.985Z,96852.00
2023-02-02T06:50:32.507Z,96856.80
2023-02-02T06:53:00.973Z,96869.00
2023-02-02T06:55:29.134Z,96874.60
2023-02-02T06:57:58.128Z,96874.60
2023-02-02T07:00:27.132Z,96873.40
2023-02-02T07:02:56.019Z,96871.80
2023-02-02T07:05:25.150Z,96878.00
2023-02-02T07:07:53.711Z,96881.00
2023-02-02T07:11:08.426Z,96876.40
2023-02-02T07:13:13.405Z,96885.40
2023-02-02T07:15:43.807Z,96887.60
2023-02-02T07:18:11.957Z,96890.60
2023-02-02T07:20:40.363Z,96889.40
2023-02-02T07:23:08.626Z,96892.60
2023-02-02T07:25:36.879Z,96891.80
2023-02-02T07:28:05.192Z,96894.00
2023-02-02T07:30:33.627Z,96895.00
2023-02-02T07:33:02.360Z,96897.80
2023-02-02T07:35:30.944Z,96898.40
2023-02-02T07:37:59.115Z,96896.00
2023-02-02T07:40:27.675Z,96898.80
2023-02-02T07:42:56.458Z,96896.20
2023-02-02T07:45:27.938Z,96895.60
2023-02-02T07:47:59.837Z,96890.40
2023-02-02T07:50:28.793Z,96892.20
2023-02-02T07:53:01.181Z,96896.80
2023-02-02T07:55:29.652Z,96898.00
2023-02-02T07:57:59.196Z,96890.60
2023-02-02T08:00:27.792Z,96893.80
2023-02-02T08:02:56.052Z,96891.40
2023-02-02T08:05:24.684Z,96895.20
2023-02-02T08:07:53.067Z,96897.20
2023-02-02T08:10:21.042Z,96889.40
2023-02-02T08:12:49.018Z,96896.80
2023-02-02T08:15:20.101Z,96891.00
2023-02-02T08:17:50.165Z,96899.60
2023-02-02T08:20:18.743Z,96890.80
2023-02-02T08:22:46.815Z,96887.20
2023-02-02T08:25:14.769Z,96886.60
2023-02-02T08:27:44.603Z,96895.80
2023-02-02T08:30:13.745Z,96897.60
2023-02-02T08:32:41.864Z,96900.80
2023-02-02T08:35:09.941Z,96905.00
2023-02-02T08:37:38.011Z,96908.20
2023-02-02T08:40:06.813Z,96911.40
2023-02-02T08:42:34.849Z,96915.60
2023-02-02T08:46:02.397Z,96916.20
2023-02-02T08:48:05.510Z,96915.00
2023-02-02T08:50:39.179Z,96925.00
2023-02-02T08:53:07.413Z,96924.40
2023-02-02T08:55:35.570Z,96927.20
2023-02-02T08:58:03.654Z,96928.80
2023-02-02T09:00:31.850Z,96932.20
2023-02-02T09:02:59.823Z,96937.20
2023-02-02T09:05:31.272Z,96935.20
2023-02-02T09:07:59.855Z,96933.20
2023-02-02T09:10:28.651Z,96938.40
2023-02-02T09:12:57.863Z,96942.20
2023-02-02T09:15:26.322Z,96947.60
2023-02-02T09:17:54.481Z,96943.20
2023-02-02T09:20:22.524Z,96951.60
2023-02-02T09:22:50.595Z,96951.60
2023-02-02T09:25:20.628Z,96947.60
2023-02-02T09:27:48.570Z,96953.80
2023-02-02T09:30:17.182Z,96954.00
2023-02-02T09:32:45.868Z,96948.80
2023-02-02T09:35:14.020Z,96944.60
2023-02-02T09:37:44.313Z,96944.80
2023-02-02T09:40:19.317Z,96940.00
2023-02-02T09:43:04.810Z,96948.00
2023-02-02T09:45:36.518Z,96946.00
2023-02-02T09:48:30.694Z,96952.00
2023-02-02T09:51:00.571Z,96952.40
2023-02-02T09:54:01.211Z,96951.60
2023-02-02T09:56:39.225Z,96951.60
2023-02-02T09:59:19.831Z,96940.80
2023-02-02T10:01:56.891Z,96945.40
2023-02-02T10:04:38.969Z,96941.00
2023-02-02T10:07:18.820Z,96944.60
2023-02-02T10:09:52.036Z,96949.00
2023-02-02T10:12:49.752Z,96957.00
2023-02-02T10:15:33.984Z,96958.20
2023-02-02T10:18:21.424Z,96969.40
2023-02-02T10:21:19.689Z,96966.60
2023-02-02T10:23:47.571Z,96966.20
2023-02-02T10:26:22.621Z,96967.80
2023-02-02T10:29:09.342Z,96970.60
2023-02-02T10:31:44.966Z,96972.60
2023-02-02T10:34:33.145Z,96969.60
2023-02-02T10:37:04.246Z,96975.60
2023-02-02T10:39:38.320Z,96975.80
2023-02-02T10:42:16.322Z,96980.60
2023-02-02T10:44:59.916Z,96984.40
2023-02-02T10:47:30.167Z,96977.20
2023-02-02T10:50:19.503Z,96978.60
2023-02-02T10:52:54.676Z,96980.00
2023-02-02T10:55:33.295Z,96981.00
2023-02-02T10:58:13.708Z,96986.40
2023-02-02T11:01:08.003Z,96981.80
2023-02-02T11:03:36.489Z,96986.20
2023-02-02T11:06:24.764Z,96983.20
2023-02-02T11:08:57.051Z,96979.00
2023-02-02T11:11:47.454Z,96974.80
2023-02-02T11:14:18.953Z,96977.60
2023-02-02T11:16:47.403Z,96974.00
2023-02-02T11:19:18.233Z,96973.20
2023-02-02T11:21:50.464Z,96972.00
2023-02-02T11:24:27.761Z,96978.60
2023-02-02T11:26:55.973Z,96980.60
2023-02-02T11:29:39.317Z,96978.20
2023-02-02T11:32:20.531Z,96970.00
2023-02-02T11:34:48.685Z,96967.80
2023-02-02T11:37:21.445Z,96966.60
2023-02-02T11:39:49.527Z,96980.60
2023-02-02T11:42:20.192Z,96968.60
2023-02-02T11:45:02.143Z,96965.20
2023-02-02T11:47:32.820Z,96970.60
2023-02-02T11:50:02.035Z,96963.60
2023-02-02T11:52:32.696Z,96970.40
2023-02-02T11:55:02.233Z,96964.20
2023-02-02T11:57:30.897Z,96967.00
2023-02-02T12:00:11.055Z,96968.80
2023-02-02T12:02:41.169Z,96971.60
2023-02-02T12:05:13.557Z,96971.00
2023-02-02T12:07:42.774Z,96973.00
2023-02-02T12:14:45.862Z,96965.60
2023-02-02T12:17:41.825Z,96964.40
2023-02-02T12:20:27.570Z,96957.40
2023-02-02T12:23:23.890Z,96958.60
2023-02-02T12:26:00.656Z,96968.80
2023-02-02T12:28:50.622Z,96971.80
2023-02-02T12:31:27.853Z,96965.40
2023-02-02T12:34:17.098Z,96969.40
2023-02-02T12:36:56.020Z,96965.20
2023-02-02T12:39:27.980Z,96980.60
2023-02-02T12:42:18.272Z,96981.00
2023-02-02T12:45:03.576Z,96976.00
2023-02-02T12:48:29.948Z,96979.00
2023-02-02T12:50:57.913Z,96969.60
2023-02-02T12:53:34.731Z,96982.00
2023-02-02T12:56:33.831Z,96975.00
2023-02-02T12:59:04.971Z,96974.80
2023-02-02T13:01:54.083Z,96982.80
2023-02-02T13:04:22.517Z,96980.00
2023-02-02T13:07:14.247Z,96981.80
2023-02-02T13:09:48.581Z,96978.80
2023-02-02T13:12:18.371Z,96974.60
2023-02-02T13:14:55.038Z,96979.40
2023-02-02T13:17:43.811Z,96974.00
2023-02-02T13:20:46.081Z,96978.80
2023-02-02T13:23:18.954Z,96988.80
2023-02-02T13:25:53.473Z,96997.00
2023-02-02T13:28:43.801Z,97003.60
2023-02-02T13:31:18.280Z,97005.40
2023-02-02T13:33:48.650Z,97006.60
2023-02-02T13:36:25.737Z,97013.60
2023-02-02T13:38:54.749Z,97015.60
2023-02-02T13:41:23.907Z,97014.80
2023-02-02T13:44:01.790Z,97019.20
2023-02-02T13:47:12.152Z,97021.20
2023-02-02T13:49:45.144Z,97031.60
2023-02-02T13:52:29.009Z,97028.80
2023-02-02T13:55:29.519Z,97026.40
2023-02-02T13:58:26.777Z,97037.40
2023-02-02T14:00:57.539Z,97040.60
2023-02-02T14:03:33.860Z,97043.40
2023-02-02T14:06:10.155Z,97049.40
2023-02-02T14:08:38.405Z,97050.00
2023-02-02T14:11:07.684Z,97056.60
2023-02-02T14:14:02.480Z,97052.20
2023-02-02T14:16:33.539Z,97056.60
2023-02-02T14:19:02.623Z,97059.40
2023-02-02T14:21:36.140Z,97064.00
2023-02-02T14:24:26.589Z,97060.40
2023-02-02T14:26:55.525Z,97065.40
2023-02-02T14:29:46.422Z,97067.00
2023-02-02T14:32:27.784Z,97065.80
2023-02-02T14:35:14.620Z,97064.80
2023-02-02T14:37:52.988Z,97062.00
2023-02-02T14:40:29.862Z,97059.60
2023-02-02T14:43:22.999Z,97052.80
2023-02-02T14:46:13.457Z,97053.00
2023-02-02T14:48:47.587Z,97060.40
2023-02-02T14:51:27.155Z,97055.80
2023-02-02T14:54:01.293Z,97053.40
2023-02-02T14:56:45.675Z,97051.60
2023-02-02T14:59:27.496Z,97055.80
2023-02-02T15:02:36.221Z,97061.20
2023-02-02T15:05:29.674Z,97063.40
2023-02-02T15:08:12.915Z,97070.60
2023-02-02T15:10:56.884Z,97067.00
2023-02-02T15:13:28.855Z,97066.40
2023-02-02T15:16:17.321Z,97068.20
2023-02-02T15:18:45.641Z,97070.00
2023-02-02T15:21:15.678Z,97067.00
2023-02-02T15:23:46.818Z,97073.20
2023-02-02T15:26:17.865Z,97071.00
2023-02-02T15:29:11.703Z,97072.20
2023-02-02T15:31:52.382Z,97075.80
2023-02-02T15:34:37.651Z,97075.00
2023-02-02T15:37:07.222Z,97077.80
2023-02-02T15:39:38.310Z,97086.40
2023-02-02T15:42:53.161Z,97083.80
2023-02-02T15:45:45.173Z,97090.40
2023-02-02T15:48:22.492Z,97090.60
2023-02-02T15:50:54.763Z,97087.20
2023-02-02T15:53:41.147Z,97092.80
2023-02-02T15:56:29.667Z,97094.80
2023-02-02T15:58:59.610Z,97093.80
2023-02-02T16:01:29.755Z,97088.60
2023-02-02T16:04:18.028Z,97092.00
2023-02-02T16:06:45.963Z,97093.60
2023-02-02T16:09:30.063Z,97098.60
2023-02-02T16:11:58.123Z,97102.80
2023-02-02T16:14:26.031Z,97105.80
2023-02-02T16:16:54.414Z,97113.80
2023-02-02T16:19:24.399Z,97116.80
2023-02-02T16:22:09.414Z,97118.20
2023-02-02T16:24:40.269Z,97124.80
2023-02-02T16:27:12.349Z,97137.40
2023-02-02T16:29:41.284Z,97132.40
2023-02-02T16:32:32.193Z,97133.00
2023-02-02T16:35:04.870Z,97137.20
2023-02-02T16:37:34.370Z,97138.80
2023-02-02T16:40:16.888Z,97143.00
2023-02-02T16:42:44.900Z,97140.40
2023-02-02T16:45:34.010Z,97140.20
2023-02-02T16:48:55.983Z,97144.80
2023-02-02T16:51:25.047Z,97146.20
2023-02-02T16:53:58.280Z,97146.80
2023-02-02T16:56:30.407Z,97152.80
2023-02-02T16:59:00.496Z,97151.00
2023-02-02T17:01:43.258Z,97151.20
2023-02-02T17:04:37.692Z,97149.00
2023-02-02T17:07:10.364Z,97152.20
2023-02-02T17:09:41.108Z,97150.80
2023-02-02T17:12:30.432Z,97154.00
2023-02-02T17:15:05.077Z,97157.00
2023-02-02T17:17:33.100Z,97156.60
2023-02-02T17:20:01.174Z,97161.80
2023-02-02T17:22:29.270Z,97158.60
2023-02-02T17:24:57.626Z,97155.40
2023-02-02T17:27:33.465Z,97162.00
2023-02-02T17:30:02.673Z,97164.60
2023-02-02T17:32:30.976Z,97172.20
2023-02-02T17:34:59.030Z,97178.40
2023-02-02T17:37:26.947Z,97183.40
2023-02-02T17:39:54.887Z,97182.60
2023-02-02T17:42:25.144Z,97183.60
2023-02-02T17:44:53.276Z,97183.00
2023-02-02T17:47:21.527Z,97176.20
2023-02-02T17:49:49.600Z,97181.00
2023-02-02T17:52:17.976Z,97179.40
2023-02-02T17:54:46.250Z,97182.40
2023-02-02T17:57:15.642Z,97182.60
2023-02-02T17:59:43.553Z,97181.80
2023-02-02T18:02:13.862Z,97184.60
2023-02-02T18:04:44.061Z,97181.60
2023-02-02T18:07:13.569Z,97184.20
2023-02-02T18:09:41.966Z,97182.20
2023-02-02T18:12:10.022Z,97176.80
2023-02-02T18:14:38.285Z,97181.20
2023-02-02T18:17:08.413Z,97173.60
2023-02-02T18:19:36.630Z,97179.80
2023-02-02T18:22:06.344Z,97179.00
2023-02-02T18:24:34.890Z,97181.80
2023-02-02T18:27:02.947Z,97184.60
2023-02-02T18:29:31.115Z,97183.80
2023-02-02T18:31:59.398Z,97193.20
2023-02-02T18:34:31.791Z,97192.20
2023-02-02T18:37:00.040Z,97193.20
2023-02-02T18:39:28.083Z,97198.00
2023-02-02T18:41:56.288Z,97199.20
2023-02-02T18:44:24.670Z,97198.20
2023-02-02T18:46:53.274Z,97199.40
2023-02-02T18:49:21.623Z,97203.80
2023-02-02T18:51:49.699Z,97202.60
2023-02-02T18:54:17.731Z,97204.80
2023-02-02T18:56:45.839Z,97209.80
2023-02-02T18:59:14.016Z,97213.60
2023-02-02T19:01:42.269Z,97212.80
2023-02-02T19:04:10.396Z,97215.80
2023-02-02T19:06:57.176Z,97215.20
2023-02-02T19:09:25.407Z,97220.80
2023-02-02T19:11:55.031Z,97224.60
2023-02-02T19:14:33.430Z,97223.40
2023-02-02T19:17:28.267Z,97231.00
2023-02-02T19:19:59.748Z,97230.80
2023-02-02T19:22:31.368Z,97231.80
2023-02-02T19:24:59.647Z,97231.00
2023-02-02T19:27:27.671Z,97231.40
2023-02-02T19:29:56.691Z,97238.80
2023-02-02T19:32:26.998Z,97240.80
2023-02-02T19:34:58.037Z,97239.80
2023-02-02T19:37:27.777Z,97241.80
2023-02-02T19:40:09.267Z,97246.80
2023-02-02T19:42:41.084Z,97249.20
2023-02-02T19:45:30.603Z,97250.00
2023-02-02T19:48:01.890Z,97253.00
2023-02-02T19:50:36.792Z,97258.00
2023-02-02T19:53:13.327Z,97261.60
2023-02-02T19:55:43.069Z,97261.20
2023-02-02T19:58:18.227Z,97262.60
2023-02-02T20:00:47.540Z,97268.40
2023-02-02T20:03:16.192Z,97263.80
2023-02-02T20:05:49.304Z,97270.00
2023-02-02T20:08:26.689Z,97272.40
2023-02-02T20:10:56.303Z,97275.40
2023-02-02T20:13:26.002Z,97272.00
2023-02-02T20:16:03.624Z,97273.60
2023-02-02T20:18:41.256Z,97279.60
2023-02-02T20:21:17.612Z,97284.40
2023-02-02T20:23:48.543Z,97284.00
2023-02-02T20:26:27.670Z,97293.20
2023-02-02T20:29:00.321Z,97299.80
2023-02-02T20:31:36.290Z,97302.80
2023-02-02T20:34:17.459Z,97311.80
2023-02-02T20:36:45.440Z,97315.80
2023-02-02T20:39:16.632Z,97322.00
2023-02-02T20:41:44.901Z,97320.20
2023-02-02T20:44:13.048Z,97320.20
2023-02-02T20:46:40.986Z,97327.80
2023-02-02T20:49:09.424Z,97332.00
2023-02-02T20:51:40.869Z,97331.20
2023-02-02T20:54:09.708Z,97330.40
2023-02-02T20:56:38.035Z,97331.00
2023-02-02T20:59:07.347Z,97335.60
2023-02-02T21:01:36.123Z,97339.80
2023-02-02T21:04:07.302Z,97343.60
2023-02-02T21:06:36.057Z,97349.40
2023-02-02T21:09:04.770Z,97351.00
2023-02-02T21:11:34.698Z,97355.80
2023-02-02T21:14:05.703Z,97353.80
2023-02-02T21:16:33.708Z,97347.60
2023-02-02T21:19:01.679Z,97348.60
2023-02-02T21:21:29.654Z,97353.80
2023-02-02T21:23:57.749Z,97354.40
2023-02-02T21:26:30.837Z,97353.00
2023-02-02T21:28:59.458Z,97356.20
2023-02-02T21:31:27.645Z,97355.20
2023-02-02T21:33:55.795Z,97356.40
2023-02-02T21:36:33.165Z,97354.00
2023-02-02T21:39:25.122Z,97357.60
2023-02-02T21:42:08.555Z,97365.20
2023-02-02T21:44:41.424Z,97372.40
2023-02-02T21:47:35.938Z,97381.40
2023-02-02T21:50:18.053Z,97389.40
2023-02-02T21:52:46.512Z,97398.20
2023-02-02T21:55:34.865Z,97416.80
2023-02-02T21:58:19.507Z,97416.00
2023-02-02T22:00:48.361Z,97412.40
2023-02-02T22:03:40.448Z,97406.80
2023-02-02T22:06:19.349Z,97413.40
2023-02-02T22:08:48.628Z,97413.80
2023-02-02T22:11:31.235Z,97421.00
2023-02-02T22:14:20.342Z,97410.80
2023-02-02T22:16:53.549Z,97409.80
2023-02-02T22:19:34.598Z,97413.60
2023-02-02T22:22:08.619Z,97410.40
2023-02-02T22:24:36.519Z,97417.80
2023-02-02T22:27:25.940Z,97418.80
2023-02-02T22:29:58.628Z,97418.60
2023-02-02T22:32:26.735Z,97421.00
2023-02-02T22:34:54.697Z,97424.00
2023-02-02T22:37:22.858Z,97425.80
2023-02-02T22:39:50.809Z,97425.80
2023-02-02T22:42:18.870Z,97417.80
2023-02-02T22:44:47.260Z,97421.40
2023-02-02T22:47:15.404Z,97420.00
2023-02-02T22:49:43.278Z,97427.40
2023-02-02T22:52:11.258Z,97428.80
2023-02-02T22:54:39.536Z,97423.00
2023-02-02T22:57:07.610Z,97426.40
2023-02-02T22:59:35.582Z,97432.40
2023-02-02T23:02:03.531Z,97433.40
2023-02-02T23:04:31.434Z,97437.00
2023-02-02T23:06:59.355Z,97439.80
2023-02-02T23:09:27.303Z,97438.40
2023-02-02T23:11:55.318Z,97449.20
2023-02-02T23:14:23.279Z,97452.00
2023-02-02T23:16:51.352Z,97456.80
2023-02-02T23:19:19.534Z,97461.40
2023-02-02T23:21:47.494Z,97468.40
2023-02-02T23:24:15.447Z,97471.00
2023-02-02T23:26:43.433Z,97486.20
2023-02-02T23:29:11.368Z,97493.80
2023-02-02T23:31:39.623Z,97491.60
2023-02-02T23:34:07.607Z,97493.20
2023-02-02T23:36:35.465Z,97491.80
2023-02-02T23:39:03.497Z,97497.80
2023-02-02T23:41:31.446Z,97494.20
2023-02-02T23:43:59.417Z,97499.40
2023-02-02T23:46:27.406Z,97500.60
2023-02-02T23:48:55.761Z,97495.60
2023-02-02T23:51:24.347Z,97505.00
2023-02-02T23:53:52.323Z,97507.20
2023-02-02T23:56:20.385Z,97517.20
2023-02-02T23:58:48.455Z,97522.60
